sensor_id;sensor_type;location;lat;lon;timestamp;P1;durP1;ratioP1;P2;durP2;ratioP2
37529;SDS011;23374;52.758;6.872;2023-08-08T00:00:16;5.50;;;2.60;;
37529;SDS011;23374;52.758;6.872;2023-08-08T00:02:39;4.23;;;2.83;;
37529;SDS011;23374;52.758;6.872;2023-08-08T00:04:59;4.83;;;2.47;;
37529;SDS011;23374;52.758;6.872;2023-08-08T00:07:20;5.03;;;2.80;;
37529;SDS011;23374;52.758;6.872;2023-08-08T00:09:40;4.77;;;2.93;;
37529;SDS011;23374;52.758;6.872;2023-08-08T00:12:00;5.93;;;2.87;;
37529;SDS011;23374;52.758;6.872;2023-08-08T00:14:21;5.33;;;2.77;;
37529;SDS011;23374;52.758;6.872;2023-08-08T00:16:41;3.80;;;2.23;;
37529;SDS011;23374;52.758;6.872;2023-08-08T00:19:03;4.53;;;3.00;;
37529;SDS011;23374;52.758;6.872;2023-08-08T00:21:23;7.33;;;3.03;;
37529;SDS011;23374;52.758;6.872;2023-08-08T00:23:44;3.50;;;2.83;;
37529;SDS011;23374;52.758;6.872;2023-08-08T00:26:04;6.27;;;3.00;;
37529;SDS011;23374;52.758;6.872;2023-08-08T00:28:24;3.90;;;2.60;;
37529;SDS011;23374;52.758;6.872;2023-08-08T00:30:45;4.17;;;2.93;;
37529;SDS011;23374;52.758;6.872;2023-08-08T00:33:05;4.67;;;2.90;;
37529;SDS011;23374;52.758;6.872;2023-08-08T00:35:25;6.63;;;2.80;;
37529;SDS011;23374;52.758;6.872;2023-08-08T00:37:46;3.90;;;2.53;;
37529;SDS011;23374;52.758;6.872;2023-08-08T00:40:07;4.37;;;3.07;;
37529;SDS011;23374;52.758;6.872;2023-08-08T00:42:28;5.20;;;3.00;;
37529;SDS011;23374;52.758;6.872;2023-08-08T00:44:48;7.23;;;3.20;;
37529;SDS011;23374;52.758;6.872;2023-08-08T00:47:09;6.77;;;3.27;;
37529;SDS011;23374;52.758;6.872;2023-08-08T00:49:30;6.63;;;2.83;;
37529;SDS011;23374;52.758;6.872;2023-08-08T00:51:50;5.83;;;2.97;;
37529;SDS011;23374;52.758;6.872;2023-08-08T00:54:11;5.53;;;3.03;;
37529;SDS011;23374;52.758;6.872;2023-08-08T00:56:32;6.13;;;2.83;;
37529;SDS011;23374;52.758;6.872;2023-08-08T00:58:53;3.87;;;3.10;;
37529;SDS011;23374;52.758;6.872;2023-08-08T01:01:13;3.57;;;2.50;;
37529;SDS011;23374;52.758;6.872;2023-08-08T01:03:33;5.97;;;2.87;;
37529;SDS011;23374;52.758;6.872;2023-08-08T01:05:59;6.50;;;3.00;;
37529;SDS011;23374;52.758;6.872;2023-08-08T01:08:47;5.87;;;3.20;;
37529;SDS011;23374;52.758;6.872;2023-08-08T01:11:12;6.43;;;3.40;;
37529;SDS011;23374;52.758;6.872;2023-08-08T01:13:34;4.53;;;3.20;;
37529;SDS011;23374;52.758;6.872;2023-08-08T01:15:56;4.40;;;3.20;;
37529;SDS011;23374;52.758;6.872;2023-08-08T01:18:18;6.77;;;3.10;;
37529;SDS011;23374;52.758;6.872;2023-08-08T01:20:39;6.17;;;3.37;;
37529;SDS011;23374;52.758;6.872;2023-08-08T01:23:11;7.27;;;3.00;;
37529;SDS011;23374;52.758;6.872;2023-08-08T01:26:10;6.67;;;3.30;;
37529;SDS011;23374;52.758;6.872;2023-08-08T01:28:31;4.83;;;3.20;;
37529;SDS011;23374;52.758;6.872;2023-08-08T01:30:53;7.37;;;3.33;;
37529;SDS011;23374;52.758;6.872;2023-08-08T01:33:14;8.00;;;3.33;;
37529;SDS011;23374;52.758;6.872;2023-08-08T01:35:39;6.07;;;3.47;;
37529;SDS011;23374;52.758;6.872;2023-08-08T01:38:09;6.73;;;3.17;;
37529;SDS011;23374;52.758;6.872;2023-08-08T01:40:35;5.53;;;2.90;;
37529;SDS011;23374;52.758;6.872;2023-08-08T01:42:58;8.73;;;3.70;;
37529;SDS011;23374;52.758;6.872;2023-08-08T01:45:19;4.53;;;2.90;;
37529;SDS011;23374;52.758;6.872;2023-08-08T01:47:40;6.13;;;3.30;;
37529;SDS011;23374;52.758;6.872;2023-08-08T01:50:01;6.30;;;3.23;;
37529;SDS011;23374;52.758;6.872;2023-08-08T01:52:21;4.47;;;2.90;;
37529;SDS011;23374;52.758;6.872;2023-08-08T01:54:42;5.83;;;3.17;;
37529;SDS011;23374;52.758;6.872;2023-08-08T01:57:03;5.57;;;3.30;;
37529;SDS011;23374;52.758;6.872;2023-08-08T01:59:24;8.13;;;3.20;;
37529;SDS011;23374;52.758;6.872;2023-08-08T02:01:45;6.40;;;3.13;;
37529;SDS011;23374;52.758;6.872;2023-08-08T02:04:05;7.93;;;2.70;;
37529;SDS011;23374;52.758;6.872;2023-08-08T02:06:26;4.80;;;3.37;;
37529;SDS011;23374;52.758;6.872;2023-08-08T02:08:46;6.23;;;2.90;;
37529;SDS011;23374;52.758;6.872;2023-08-08T02:11:06;5.53;;;3.57;;
37529;SDS011;23374;52.758;6.872;2023-08-08T02:13:26;5.17;;;3.00;;
37529;SDS011;23374;52.758;6.872;2023-08-08T02:15:47;5.27;;;3.20;;
37529;SDS011;23374;52.758;6.872;2023-08-08T02:18:07;6.10;;;3.37;;
37529;SDS011;23374;52.758;6.872;2023-08-08T02:20:29;7.80;;;3.00;;
37529;SDS011;23374;52.758;6.872;2023-08-08T02:22:50;7.57;;;3.10;;
37529;SDS011;23374;52.758;6.872;2023-08-08T02:25:11;10.43;;;3.57;;
37529;SDS011;23374;52.758;6.872;2023-08-08T02:27:31;5.37;;;3.13;;
37529;SDS011;23374;52.758;6.872;2023-08-08T02:29:52;4.60;;;2.90;;
37529;SDS011;23374;52.758;6.872;2023-08-08T02:32:12;7.80;;;3.20;;
37529;SDS011;23374;52.758;6.872;2023-08-08T02:34:32;5.50;;;3.10;;
37529;SDS011;23374;52.758;6.872;2023-08-08T02:36:53;7.73;;;3.73;;
37529;SDS011;23374;52.758;6.872;2023-08-08T02:39:13;7.97;;;3.43;;
37529;SDS011;23374;52.758;6.872;2023-08-08T02:41:33;7.93;;;2.93;;
37529;SDS011;23374;52.758;6.872;2023-08-08T02:43:54;6.60;;;3.60;;
37529;SDS011;23374;52.758;6.872;2023-08-08T02:46:14;6.83;;;3.13;;
37529;SDS011;23374;52.758;6.872;2023-08-08T02:48:34;7.77;;;3.70;;
37529;SDS011;23374;52.758;6.872;2023-08-08T02:50:54;6.63;;;3.17;;
37529;SDS011;23374;52.758;6.872;2023-08-08T02:53:15;7.83;;;3.43;;
37529;SDS011;23374;52.758;6.872;2023-08-08T02:55:36;6.17;;;3.50;;
37529;SDS011;23374;52.758;6.872;2023-08-08T02:57:56;6.67;;;3.40;;
37529;SDS011;23374;52.758;6.872;2023-08-08T03:00:16;7.40;;;3.67;;
37529;SDS011;23374;52.758;6.872;2023-08-08T03:02:37;7.13;;;3.80;;
37529;SDS011;23374;52.758;6.872;2023-08-08T03:04:57;10.93;;;3.80;;
37529;SDS011;23374;52.758;6.872;2023-08-08T03:07:18;9.93;;;4.03;;
37529;SDS011;23374;52.758;6.872;2023-08-08T03:09:38;8.90;;;3.70;;
37529;SDS011;23374;52.758;6.872;2023-08-08T03:11:59;7.83;;;3.60;;
37529;SDS011;23374;52.758;6.872;2023-08-08T03:14:19;9.83;;;3.60;;
37529;SDS011;23374;52.758;6.872;2023-08-08T03:16:39;9.57;;;3.83;;
37529;SDS011;23374;52.758;6.872;2023-08-08T03:19:00;6.47;;;3.23;;
37529;SDS011;23374;52.758;6.872;2023-08-08T03:21:20;8.37;;;3.53;;
37529;SDS011;23374;52.758;6.872;2023-08-08T03:23:40;6.17;;;3.57;;
37529;SDS011;23374;52.758;6.872;2023-08-08T03:26:01;6.07;;;3.33;;
37529;SDS011;23374;52.758;6.872;2023-08-08T03:28:21;13.20;;;4.17;;
37529;SDS011;23374;52.758;6.872;2023-08-08T03:30:42;6.77;;;3.40;;
37529;SDS011;23374;52.758;6.872;2023-08-08T03:33:02;6.47;;;3.00;;
37529;SDS011;23374;52.758;6.872;2023-08-08T03:35:23;10.23;;;3.20;;
37529;SDS011;23374;52.758;6.872;2023-08-08T03:37:44;9.37;;;3.20;;
37529;SDS011;23374;52.758;6.872;2023-08-08T03:40:06;9.40;;;3.33;;
37529;SDS011;23374;52.758;6.872;2023-08-08T03:42:27;11.33;;;3.40;;
37529;SDS011;23374;52.758;6.872;2023-08-08T03:44:47;11.93;;;3.37;;
37529;SDS011;23374;52.758;6.872;2023-08-08T03:47:07;11.00;;;4.13;;
37529;SDS011;23374;52.758;6.872;2023-08-08T03:49:28;5.07;;;3.13;;
37529;SDS011;23374;52.758;6.872;2023-08-08T03:51:48;6.33;;;2.93;;
37529;SDS011;23374;52.758;6.872;2023-08-08T03:54:08;11.80;;;3.70;;
37529;SDS011;23374;52.758;6.872;2023-08-08T03:56:28;12.77;;;3.30;;
37529;SDS011;23374;52.758;6.872;2023-08-08T03:58:49;6.87;;;3.00;;
37529;SDS011;23374;52.758;6.872;2023-08-08T04:01:09;8.93;;;3.47;;
37529;SDS011;23374;52.758;6.872;2023-08-08T04:03:29;11.20;;;3.00;;
37529;SDS011;23374;52.758;6.872;2023-08-08T04:05:49;5.13;;;2.63;;
37529;SDS011;23374;52.758;6.872;2023-08-08T04:08:10;6.93;;;3.10;;
37529;SDS011;23374;52.758;6.872;2023-08-08T04:10:30;6.23;;;3.10;;
37529;SDS011;23374;52.758;6.872;2023-08-08T04:12:51;7.57;;;2.93;;
37529;SDS011;23374;52.758;6.872;2023-08-08T04:15:11;7.07;;;3.10;;
37529;SDS011;23374;52.758;6.872;2023-08-08T04:17:31;7.60;;;3.13;;
37529;SDS011;23374;52.758;6.872;2023-08-08T04:19:52;5.37;;;3.37;;
37529;SDS011;23374;52.758;6.872;2023-08-08T04:22:12;3.47;;;2.30;;
37529;SDS011;23374;52.758;6.872;2023-08-08T04:24:32;5.60;;;3.00;;
37529;SDS011;23374;52.758;6.872;2023-08-08T04:26:53;4.60;;;2.53;;
37529;SDS011;23374;52.758;6.872;2023-08-08T04:29:14;7.80;;;2.90;;
37529;SDS011;23374;52.758;6.872;2023-08-08T04:31:34;6.17;;;2.97;;
37529;SDS011;23374;52.758;6.872;2023-08-08T04:33:55;4.63;;;2.50;;
37529;SDS011;23374;52.758;6.872;2023-08-08T04:36:19;9.47;;;3.33;;
37529;SDS011;23374;52.758;6.872;2023-08-08T04:38:40;8.93;;;3.47;;
37529;SDS011;23374;52.758;6.872;2023-08-08T04:41:00;10.00;;;2.70;;
37529;SDS011;23374;52.758;6.872;2023-08-08T04:43:20;8.63;;;3.33;;
37529;SDS011;23374;52.758;6.872;2023-08-08T04:45:41;8.27;;;3.20;;
37529;SDS011;23374;52.758;6.872;2023-08-08T04:48:01;5.83;;;2.90;;
37529;SDS011;23374;52.758;6.872;2023-08-08T04:50:21;5.10;;;2.60;;
37529;SDS011;23374;52.758;6.872;2023-08-08T04:52:42;5.53;;;2.53;;
37529;SDS011;23374;52.758;6.872;2023-08-08T04:55:02;5.40;;;3.10;;
37529;SDS011;23374;52.758;6.872;2023-08-08T04:57:23;6.10;;;3.00;;
37529;SDS011;23374;52.758;6.872;2023-08-08T04:59:43;8.73;;;3.00;;
37529;SDS011;23374;52.758;6.872;2023-08-08T05:02:04;9.40;;;3.00;;
37529;SDS011;23374;52.758;6.872;2023-08-08T05:04:25;6.83;;;3.20;;
37529;SDS011;23374;52.758;6.872;2023-08-08T05:06:45;7.27;;;2.60;;
37529;SDS011;23374;52.758;6.872;2023-08-08T05:09:06;5.40;;;2.80;;
37529;SDS011;23374;52.758;6.872;2023-08-08T05:11:28;5.93;;;3.27;;
37529;SDS011;23374;52.758;6.872;2023-08-08T05:13:49;8.60;;;2.87;;
37529;SDS011;23374;52.758;6.872;2023-08-08T05:16:09;5.63;;;2.97;;
37529;SDS011;23374;52.758;6.872;2023-08-08T05:18:32;5.43;;;2.57;;
37529;SDS011;23374;52.758;6.872;2023-08-08T05:20:53;4.57;;;2.30;;
37529;SDS011;23374;52.758;6.872;2023-08-08T05:23:14;5.27;;;2.00;;
37529;SDS011;23374;52.758;6.872;2023-08-08T05:25:34;2.77;;;1.90;;
37529;SDS011;23374;52.758;6.872;2023-08-08T05:27:55;5.17;;;1.77;;
37529;SDS011;23374;52.758;6.872;2023-08-08T05:30:16;3.07;;;1.90;;
37529;SDS011;23374;52.758;6.872;2023-08-08T05:32:36;4.73;;;2.20;;
37529;SDS011;23374;52.758;6.872;2023-08-08T05:34:57;4.40;;;2.10;;
37529;SDS011;23374;52.758;6.872;2023-08-08T05:37:18;6.73;;;1.60;;
37529;SDS011;23374;52.758;6.872;2023-08-08T05:39:38;3.80;;;1.70;;
37529;SDS011;23374;52.758;6.872;2023-08-08T05:41:59;3.20;;;1.33;;
37529;SDS011;23374;52.758;6.872;2023-08-08T05:44:19;2.57;;;1.40;;
37529;SDS011;23374;52.758;6.872;2023-08-08T05:46:39;5.63;;;1.50;;
37529;SDS011;23374;52.758;6.872;2023-08-08T05:48:59;5.90;;;1.80;;
37529;SDS011;23374;52.758;6.872;2023-08-08T05:51:21;5.60;;;1.20;;
37529;SDS011;23374;52.758;6.872;2023-08-08T05:53:41;2.83;;;1.30;;
37529;SDS011;23374;52.758;6.872;2023-08-08T05:56:02;5.03;;;1.20;;
37529;SDS011;23374;52.758;6.872;2023-08-08T05:58:22;2.13;;;1.03;;
37529;SDS011;23374;52.758;6.872;2023-08-08T06:00:43;4.23;;;1.20;;
37529;SDS011;23374;52.758;6.872;2023-08-08T06:03:04;4.13;;;1.50;;
37529;SDS011;23374;52.758;6.872;2023-08-08T06:05:24;3.13;;;1.17;;
37529;SDS011;23374;52.758;6.872;2023-08-08T06:07:45;4.83;;;1.03;;
37529;SDS011;23374;52.758;6.872;2023-08-08T06:10:05;4.00;;;1.17;;
37529;SDS011;23374;52.758;6.872;2023-08-08T06:12:27;3.30;;;1.47;;
37529;SDS011;23374;52.758;6.872;2023-08-08T06:14:48;4.50;;;1.00;;
37529;SDS011;23374;52.758;6.872;2023-08-08T06:17:09;2.53;;;0.90;;
37529;SDS011;23374;52.758;6.872;2023-08-08T06:19:29;4.73;;;1.20;;
37529;SDS011;23374;52.758;6.872;2023-08-08T06:21:50;3.23;;;1.03;;
37529;SDS011;23374;52.758;6.872;2023-08-08T06:24:10;2.60;;;1.10;;
37529;SDS011;23374;52.758;6.872;2023-08-08T06:26:31;4.70;;;0.93;;
37529;SDS011;23374;52.758;6.872;2023-08-08T06:28:51;4.13;;;1.10;;
37529;SDS011;23374;52.758;6.872;2023-08-08T06:31:11;2.67;;;0.80;;
37529;SDS011;23374;52.758;6.872;2023-08-08T06:33:32;5.67;;;0.87;;
37529;SDS011;23374;52.758;6.872;2023-08-08T06:35:52;5.53;;;1.33;;
37529;SDS011;23374;52.758;6.872;2023-08-08T06:38:14;1.63;;;1.20;;
37529;SDS011;23374;52.758;6.872;2023-08-08T06:40:34;5.37;;;0.70;;
37529;SDS011;23374;52.758;6.872;2023-08-08T06:42:55;8.03;;;1.10;;
37529;SDS011;23374;52.758;6.872;2023-08-08T06:45:15;2.47;;;0.80;;
37529;SDS011;23374;52.758;6.872;2023-08-08T06:47:35;3.70;;;0.97;;
37529;SDS011;23374;52.758;6.872;2023-08-08T06:49:56;4.57;;;1.30;;
37529;SDS011;23374;52.758;6.872;2023-08-08T06:52:16;5.60;;;0.83;;
37529;SDS011;23374;52.758;6.872;2023-08-08T06:54:36;1.70;;;0.70;;
37529;SDS011;23374;52.758;6.872;2023-08-08T06:56:57;4.00;;;1.03;;
37529;SDS011;23374;52.758;6.872;2023-08-08T06:59:17;2.73;;;0.80;;
37529;SDS011;23374;52.758;6.872;2023-08-08T07:01:37;1.93;;;0.93;;
37529;SDS011;23374;52.758;6.872;2023-08-08T07:03:58;2.23;;;0.93;;
37529;SDS011;23374;52.758;6.872;2023-08-08T07:06:19;5.47;;;0.97;;
37529;SDS011;23374;52.758;6.872;2023-08-08T07:08:39;1.47;;;0.80;;
37529;SDS011;23374;52.758;6.872;2023-08-08T07:10:59;5.50;;;1.20;;
37529;SDS011;23374;52.758;6.872;2023-08-08T07:13:20;4.83;;;1.10;;
37529;SDS011;23374;52.758;6.872;2023-08-08T07:15:41;1.27;;;0.50;;
37529;SDS011;23374;52.758;6.872;2023-08-08T07:18:02;1.20;;;0.67;;
37529;SDS011;23374;52.758;6.872;2023-08-08T07:20:22;2.93;;;0.90;;
37529;SDS011;23374;52.758;6.872;2023-08-08T07:22:44;4.60;;;1.00;;
37529;SDS011;23374;52.758;6.872;2023-08-08T07:25:05;4.27;;;0.90;;
37529;SDS011;23374;52.758;6.872;2023-08-08T07:27:26;2.70;;;0.70;;
37529;SDS011;23374;52.758;6.872;2023-08-08T07:29:47;6.03;;;0.63;;
37529;SDS011;23374;52.758;6.872;2023-08-08T07:32:07;4.83;;;0.77;;
37529;SDS011;23374;52.758;6.872;2023-08-08T07:34:28;3.20;;;0.70;;
37529;SDS011;23374;52.758;6.872;2023-08-08T07:36:49;1.77;;;0.70;;
37529;SDS011;23374;52.758;6.872;2023-08-08T07:39:10;4.13;;;1.20;;
37529;SDS011;23374;52.758;6.872;2023-08-08T07:41:30;2.53;;;0.87;;
37529;SDS011;23374;52.758;6.872;2023-08-08T07:43:50;4.30;;;0.90;;
37529;SDS011;23374;52.758;6.872;2023-08-08T07:46:11;3.67;;;0.70;;
37529;SDS011;23374;52.758;6.872;2023-08-08T07:48:32;2.73;;;0.67;;
37529;SDS011;23374;52.758;6.872;2023-08-08T07:50:52;2.13;;;0.80;;
37529;SDS011;23374;52.758;6.872;2023-08-08T07:53:13;2.77;;;0.57;;
37529;SDS011;23374;52.758;6.872;2023-08-08T07:55:33;2.33;;;1.07;;
37529;SDS011;23374;52.758;6.872;2023-08-08T07:57:53;1.57;;;0.70;;
37529;SDS011;23374;52.758;6.872;2023-08-08T08:00:14;1.53;;;0.73;;
37529;SDS011;23374;52.758;6.872;2023-08-08T08:02:39;1.97;;;0.50;;
37529;SDS011;23374;52.758;6.872;2023-08-08T08:05:00;2.77;;;0.80;;
37529;SDS011;23374;52.758;6.872;2023-08-08T08:07:21;1.80;;;0.70;;
37529;SDS011;23374;52.758;6.872;2023-08-08T08:09:41;1.23;;;0.70;;
37529;SDS011;23374;52.758;6.872;2023-08-08T08:12:03;1.87;;;0.50;;
37529;SDS011;23374;52.758;6.872;2023-08-08T08:14:24;0.53;;;0.50;;
37529;SDS011;23374;52.758;6.872;2023-08-08T08:16:45;3.93;;;0.80;;
37529;SDS011;23374;52.758;6.872;2023-08-08T08:19:05;2.70;;;0.60;;
37529;SDS011;23374;52.758;6.872;2023-08-08T08:21:25;2.63;;;0.80;;
37529;SDS011;23374;52.758;6.872;2023-08-08T08:23:46;1.10;;;0.50;;
37529;SDS011;23374;52.758;6.872;2023-08-08T08:26:06;1.87;;;0.67;;
37529;SDS011;23374;52.758;6.872;2023-08-08T08:28:27;2.00;;;0.70;;
37529;SDS011;23374;52.758;6.872;2023-08-08T08:30:47;1.40;;;0.60;;
37529;SDS011;23374;52.758;6.872;2023-08-08T08:33:07;1.00;;;0.60;;
37529;SDS011;23374;52.758;6.872;2023-08-08T08:35:27;2.37;;;0.70;;
37529;SDS011;23374;52.758;6.872;2023-08-08T08:37:48;1.20;;;0.47;;
37529;SDS011;23374;52.758;6.872;2023-08-08T08:40:09;0.50;;;0.50;;
37529;SDS011;23374;52.758;6.872;2023-08-08T08:42:30;1.87;;;0.40;;
37529;SDS011;23374;52.758;6.872;2023-08-08T08:44:52;2.00;;;0.60;;
37529;SDS011;23374;52.758;6.872;2023-08-08T08:47:17;1.03;;;0.70;;
37529;SDS011;23374;52.758;6.872;2023-08-08T08:49:40;1.83;;;0.77;;
37529;SDS011;23374;52.758;6.872;2023-08-08T08:52:03;3.67;;;0.60;;
37529;SDS011;23374;52.758;6.872;2023-08-08T08:54:25;1.30;;;0.50;;
37529;SDS011;23374;52.758;6.872;2023-08-08T08:56:46;1.93;;;0.70;;
37529;SDS011;23374;52.758;6.872;2023-08-08T08:59:07;4.73;;;0.67;;
37529;SDS011;23374;52.758;6.872;2023-08-08T09:01:27;4.07;;;0.90;;
37529;SDS011;23374;52.758;6.872;2023-08-08T09:03:48;3.30;;;0.57;;
37529;SDS011;23374;52.758;6.872;2023-08-08T09:06:09;1.90;;;0.73;;
37529;SDS011;23374;52.758;6.872;2023-08-08T09:08:31;1.50;;;0.67;;
37529;SDS011;23374;52.758;6.872;2023-08-08T09:10:52;1.27;;;0.70;;
37529;SDS011;23374;52.758;6.872;2023-08-08T09:13:13;1.87;;;0.80;;
37529;SDS011;23374;52.758;6.872;2023-08-08T09:15:33;3.13;;;0.80;;
37529;SDS011;23374;52.758;6.872;2023-08-08T09:17:54;0.83;;;0.50;;
37529;SDS011;23374;52.758;6.872;2023-08-08T09:20:15;0.80;;;0.50;;
37529;SDS011;23374;52.758;6.872;2023-08-08T09:22:37;3.33;;;0.87;;
37529;SDS011;23374;52.758;6.872;2023-08-08T09:24:57;2.73;;;0.60;;
37529;SDS011;23374;52.758;6.872;2023-08-08T09:27:17;0.40;;;0.30;;
37529;SDS011;23374;52.758;6.872;2023-08-08T09:29:38;1.97;;;0.60;;
37529;SDS011;23374;52.758;6.872;2023-08-08T09:31:59;2.93;;;0.63;;
37529;SDS011;23374;52.758;6.872;2023-08-08T09:34:24;1.50;;;0.50;;
37529;SDS011;23374;52.758;6.872;2023-08-08T09:36:45;1.90;;;0.50;;
37529;SDS011;23374;52.758;6.872;2023-08-08T09:39:06;2.20;;;0.60;;
37529;SDS011;23374;52.758;6.872;2023-08-08T09:41:27;1.70;;;0.60;;
37529;SDS011;23374;52.758;6.872;2023-08-08T09:43:49;1.00;;;0.53;;
37529;SDS011;23374;52.758;6.872;2023-08-08T09:46:10;3.37;;;0.60;;
37529;SDS011;23374;52.758;6.872;2023-08-08T09:48:32;3.03;;;0.53;;
37529;SDS011;23374;52.758;6.872;2023-08-08T09:50:53;1.87;;;0.60;;
37529;SDS011;23374;52.758;6.872;2023-08-08T09:53:13;1.30;;;0.70;;
37529;SDS011;23374;52.758;6.872;2023-08-08T09:55:34;0.57;;;0.40;;
37529;SDS011;23374;52.758;6.872;2023-08-08T09:57:55;0.53;;;0.53;;
37529;SDS011;23374;52.758;6.872;2023-08-08T10:00:18;1.40;;;0.40;;
37529;SDS011;23374;52.758;6.872;2023-08-08T10:02:40;0.93;;;0.60;;
37529;SDS011;23374;52.758;6.872;2023-08-08T10:05:06;1.70;;;0.67;;
37529;SDS011;23374;52.758;6.872;2023-08-08T10:07:26;1.97;;;0.80;;
37529;SDS011;23374;52.758;6.872;2023-08-08T10:09:46;2.43;;;0.63;;
37529;SDS011;23374;52.758;6.872;2023-08-08T10:12:08;2.17;;;0.80;;
37529;SDS011;23374;52.758;6.872;2023-08-08T10:14:32;2.00;;;0.50;;
37529;SDS011;23374;52.758;6.872;2023-08-08T10:16:55;5.03;;;0.80;;
37529;SDS011;23374;52.758;6.872;2023-08-08T10:19:21;1.77;;;0.60;;
37529;SDS011;23374;52.758;6.872;2023-08-08T10:21:43;2.03;;;0.60;;
37529;SDS011;23374;52.758;6.872;2023-08-08T10:24:06;1.27;;;0.70;;
37529;SDS011;23374;52.758;6.872;2023-08-08T10:26:28;1.27;;;0.50;;
37529;SDS011;23374;52.758;6.872;2023-08-08T10:28:54;0.40;;;0.40;;
37529;SDS011;23374;52.758;6.872;2023-08-08T10:31:19;2.90;;;0.70;;
37529;SDS011;23374;52.758;6.872;2023-08-08T10:33:41;1.50;;;0.70;;
37529;SDS011;23374;52.758;6.872;2023-08-08T10:36:04;4.00;;;0.97;;
37529;SDS011;23374;52.758;6.872;2023-08-08T10:38:37;2.40;;;0.80;;
37529;SDS011;23374;52.758;6.872;2023-08-08T10:41:02;3.23;;;0.70;;
37529;SDS011;23374;52.758;6.872;2023-08-08T10:43:26;2.17;;;0.70;;
37529;SDS011;23374;52.758;6.872;2023-08-08T10:45:50;1.33;;;0.80;;
37529;SDS011;23374;52.758;6.872;2023-08-08T10:48:11;2.13;;;0.67;;
37529;SDS011;23374;52.758;6.872;2023-08-08T10:50:32;0.70;;;0.50;;
37529;SDS011;23374;52.758;6.872;2023-08-08T10:52:57;3.27;;;0.80;;
37529;SDS011;23374;52.758;6.872;2023-08-08T10:55:37;4.07;;;0.93;;
37529;SDS011;23374;52.758;6.872;2023-08-08T10:58:02;2.20;;;0.80;;
37529;SDS011;23374;52.758;6.872;2023-08-08T11:00:33;1.80;;;0.93;;
37529;SDS011;23374;52.758;6.872;2023-08-08T11:02:56;2.00;;;0.97;;
37529;SDS011;23374;52.758;6.872;2023-08-08T11:05:19;4.10;;;1.07;;
37529;SDS011;23374;52.758;6.872;2023-08-08T11:07:40;1.70;;;1.03;;
37529;SDS011;23374;52.758;6.872;2023-08-08T11:10:02;2.47;;;0.77;;
37529;SDS011;23374;52.758;6.872;2023-08-08T11:12:23;1.83;;;0.80;;
37529;SDS011;23374;52.758;6.872;2023-08-08T11:14:46;2.93;;;0.83;;
37529;SDS011;23374;52.758;6.872;2023-08-08T11:17:06;1.90;;;0.60;;
37529;SDS011;23374;52.758;6.872;2023-08-08T11:19:27;2.37;;;0.87;;
37529;SDS011;23374;52.758;6.872;2023-08-08T11:21:47;0.93;;;0.83;;
37529;SDS011;23374;52.758;6.872;2023-08-08T11:24:09;3.97;;;1.10;;
37529;SDS011;23374;52.758;6.872;2023-08-08T11:26:31;1.70;;;0.97;;
37529;SDS011;23374;52.758;6.872;2023-08-08T11:28:51;4.37;;;1.00;;
37529;SDS011;23374;52.758;6.872;2023-08-08T11:31:12;2.43;;;1.20;;
37529;SDS011;23374;52.758;6.872;2023-08-08T11:33:33;6.30;;;1.00;;
37529;SDS011;23374;52.758;6.872;2023-08-08T11:35:53;3.00;;;1.00;;
37529;SDS011;23374;52.758;6.872;2023-08-08T11:38:15;1.60;;;0.90;;
37529;SDS011;23374;52.758;6.872;2023-08-08T11:40:37;4.73;;;1.10;;
37529;SDS011;23374;52.758;6.872;2023-08-08T11:42:58;3.23;;;0.90;;
37529;SDS011;23374;52.758;6.872;2023-08-08T11:45:19;2.60;;;1.00;;
37529;SDS011;23374;52.758;6.872;2023-08-08T11:47:40;1.83;;;0.80;;
37529;SDS011;23374;52.758;6.872;2023-08-08T11:50:02;3.73;;;0.80;;
37529;SDS011;23374;52.758;6.872;2023-08-08T11:52:24;3.50;;;0.97;;
37529;SDS011;23374;52.758;6.872;2023-08-08T11:54:44;2.83;;;1.07;;
37529;SDS011;23374;52.758;6.872;2023-08-08T11:57:09;3.17;;;0.90;;
37529;SDS011;23374;52.758;6.872;2023-08-08T11:59:31;1.63;;;0.83;;
37529;SDS011;23374;52.758;6.872;2023-08-08T12:01:51;3.60;;;0.83;;
37529;SDS011;23374;52.758;6.872;2023-08-08T12:04:11;1.10;;;0.63;;
37529;SDS011;23374;52.758;6.872;2023-08-08T12:06:32;0.70;;;0.40;;
37529;SDS011;23374;52.758;6.872;2023-08-08T12:08:53;0.77;;;0.63;;
37529;SDS011;23374;52.758;6.872;2023-08-08T12:11:15;1.97;;;0.80;;
37529;SDS011;23374;52.758;6.872;2023-08-08T12:13:37;2.30;;;0.80;;
37529;SDS011;23374;52.758;6.872;2023-08-08T12:16:03;1.83;;;0.73;;
37529;SDS011;23374;52.758;6.872;2023-08-08T12:18:25;3.27;;;0.70;;
37529;SDS011;23374;52.758;6.872;2023-08-08T12:20:46;2.47;;;1.00;;
37529;SDS011;23374;52.758;6.872;2023-08-08T12:23:06;1.07;;;0.87;;
37529;SDS011;23374;52.758;6.872;2023-08-08T12:25:27;5.60;;;0.93;;
37529;SDS011;23374;52.758;6.872;2023-08-08T12:27:47;2.37;;;0.70;;
37529;SDS011;23374;52.758;6.872;2023-08-08T12:30:08;1.37;;;0.57;;
37529;SDS011;23374;52.758;6.872;2023-08-08T12:32:29;4.17;;;0.77;;
37529;SDS011;23374;52.758;6.872;2023-08-08T12:34:51;3.53;;;1.10;;
37529;SDS011;23374;52.758;6.872;2023-08-08T12:37:12;0.83;;;0.70;;
37529;SDS011;23374;52.758;6.872;2023-08-08T12:39:32;2.23;;;0.80;;
37529;SDS011;23374;52.758;6.872;2023-08-08T12:41:53;3.80;;;0.97;;
37529;SDS011;23374;52.758;6.872;2023-08-08T12:44:13;2.97;;;1.03;;
37529;SDS011;23374;52.758;6.872;2023-08-08T12:46:34;4.17;;;1.23;;
37529;SDS011;23374;52.758;6.872;2023-08-08T12:48:54;2.63;;;0.87;;
37529;SDS011;23374;52.758;6.872;2023-08-08T12:51:14;2.47;;;0.87;;
37529;SDS011;23374;52.758;6.872;2023-08-08T12:53:37;3.00;;;0.83;;
37529;SDS011;23374;52.758;6.872;2023-08-08T12:55:57;3.40;;;1.17;;
37529;SDS011;23374;52.758;6.872;2023-08-08T12:58:17;1.83;;;1.00;;
37529;SDS011;23374;52.758;6.872;2023-08-08T13:00:38;2.37;;;0.80;;
37529;SDS011;23374;52.758;6.872;2023-08-08T13:02:59;3.20;;;1.20;;
37529;SDS011;23374;52.758;6.872;2023-08-08T13:05:19;2.03;;;1.00;;
37529;SDS011;23374;52.758;6.872;2023-08-08T13:07:39;3.33;;;1.07;;
37529;SDS011;23374;52.758;6.872;2023-08-08T13:10:00;6.33;;;1.40;;
37529;SDS011;23374;52.758;6.872;2023-08-08T13:12:20;2.73;;;0.87;;
37529;SDS011;23374;52.758;6.872;2023-08-08T13:14:41;1.20;;;0.87;;
37529;SDS011;23374;52.758;6.872;2023-08-08T13:17:01;3.37;;;1.07;;
37529;SDS011;23374;52.758;6.872;2023-08-08T13:19:21;3.33;;;0.90;;
37529;SDS011;23374;52.758;6.872;2023-08-08T13:21:45;1.00;;;0.60;;
37529;SDS011;23374;52.758;6.872;2023-08-08T13:24:07;0.50;;;0.50;;
37529;SDS011;23374;52.758;6.872;2023-08-08T13:26:29;1.67;;;0.80;;
37529;SDS011;23374;52.758;6.872;2023-08-08T13:28:50;1.03;;;0.63;;
37529;SDS011;23374;52.758;6.872;2023-08-08T13:31:11;1.77;;;0.70;;
37529;SDS011;23374;52.758;6.872;2023-08-08T13:33:31;2.30;;;0.63;;
37529;SDS011;23374;52.758;6.872;2023-08-08T13:35:52;2.97;;;0.90;;
37529;SDS011;23374;52.758;6.872;2023-08-08T13:38:12;1.03;;;0.70;;
37529;SDS011;23374;52.758;6.872;2023-08-08T13:40:34;2.87;;;0.70;;
37529;SDS011;23374;52.758;6.872;2023-08-08T13:42:54;1.70;;;0.70;;
37529;SDS011;23374;52.758;6.872;2023-08-08T13:45:14;0.93;;;0.80;;
37529;SDS011;23374;52.758;6.872;2023-08-08T13:47:35;2.67;;;0.80;;
37529;SDS011;23374;52.758;6.872;2023-08-08T13:49:55;2.90;;;0.90;;
37529;SDS011;23374;52.758;6.872;2023-08-08T13:52:16;1.33;;;0.80;;
37529;SDS011;23374;52.758;6.872;2023-08-08T13:54:36;2.13;;;1.00;;
37529;SDS011;23374;52.758;6.872;2023-08-08T13:56:56;3.03;;;0.60;;
37529;SDS011;23374;52.758;6.872;2023-08-08T13:59:17;4.23;;;0.87;;
37529;SDS011;23374;52.758;6.872;2023-08-08T14:01:37;1.90;;;0.63;;
37529;SDS011;23374;52.758;6.872;2023-08-08T14:04:00;4.00;;;1.03;;
37529;SDS011;23374;52.758;6.872;2023-08-08T14:06:21;2.37;;;0.70;;
37529;SDS011;23374;52.758;6.872;2023-08-08T14:08:41;1.87;;;0.73;;
37529;SDS011;23374;52.758;6.872;2023-08-08T14:11:01;3.03;;;0.90;;